createdAt,value
2023-05-09T00:00:02.875Z,77.54
2023-05-09T00:02:29.677Z,76.83
2023-05-09T00:04:56.805Z,78.00
2023-05-09T00:07:23.281Z,78.58
2023-05-09T00:09:49.757Z,79.51
2023-05-09T00:12:16.321Z,79.90
2023-05-09T00:14:45.326Z,79.70
2023-05-09T00:17:14.560Z,79.36
2023-05-09T00:19:41.796Z,77.81
2023-05-09T00:22:09.189Z,77.42
2023-05-09T00:24:35.704Z,77.86
2023-05-09T00:27:02.195Z,78.12
2023-05-09T00:29:28.679Z,77.95
2023-05-09T00:31:55.362Z,79.15
2023-05-09T00:34:21.889Z,79.63
2023-05-09T00:36:48.499Z,79.56
2023-05-09T00:39:14.957Z,79.46
2023-05-09T00:41:41.419Z,79.14
2023-05-09T00:44:08.573Z,79.01
2023-05-09T00:46:35.472Z,78.75
2023-05-09T00:49:02.083Z,78.85
2023-05-09T00:51:28.572Z,78.73
2023-05-09T00:53:55.062Z,78.73
2023-05-09T00:56:21.960Z,78.54
2023-05-09T00:58:48.573Z,78.39
2023-05-09T01:01:15.084Z,78.48
2023-05-09T01:03:41.680Z,78.28
2023-05-09T01:06:27.301Z,78.34
2023-05-09T01:09:01.141Z,78.31
2023-05-09T01:11:30.183Z,78.32
2023-05-09T01:14:14.726Z,78.40
2023-05-09T01:16:52.098Z,78.42
2023-05-09T01:19:41.793Z,78.46
2023-05-09T01:22:09.479Z,78.48
2023-05-09T01:24:39.323Z,78.16
2023-05-09T01:27:39.115Z,78.12
2023-05-09T01:30:07.014Z,77.88
2023-05-09T01:32:33.511Z,78.00
2023-05-09T01:35:01.441Z,77.81
2023-05-09T01:37:35.705Z,78.11
2023-05-09T01:40:06.333Z,77.18
2023-05-09T01:42:41.399Z,76.67
2023-05-09T01:45:08.472Z,76.54
2023-05-09T01:47:35.027Z,76.28
2023-05-09T01:50:02.032Z,76.97
2023-05-09T01:52:28.491Z,77.13
2023-05-09T01:54:54.955Z,77.24
2023-05-09T01:57:21.553Z,77.47
2023-05-09T01:59:48.010Z,77.54
2023-05-09T02:02:14.493Z,77.74
2023-05-09T02:04:41.332Z,77.88
2023-05-09T02:07:07.793Z,78.05
2023-05-09T02:09:34.257Z,78.04
2023-05-09T02:12:01.173Z,77.85
2023-05-09T02:14:27.650Z,77.72
2023-05-09T02:16:54.213Z,77.07
2023-05-09T02:19:20.756Z,77.32
2023-05-09T02:21:47.217Z,77.32
2023-05-09T02:24:14.123Z,77.40
2023-05-09T02:26:40.662Z,77.55
2023-05-09T02:29:07.418Z,77.23
2023-05-09T02:31:33.946Z,77.30
2023-05-09T02:34:00.428Z,77.84
2023-05-09T02:36:27.823Z,77.84
2023-05-09T02:38:54.294Z,77.66
2023-05-09T02:41:21.762Z,77.27
2023-05-09T02:43:48.243Z,76.98
2023-05-09T02:46:14.731Z,77.03
2023-05-09T02:48:41.236Z,76.75
2023-05-09T02:51:07.923Z,76.72
2023-05-09T02:53:34.400Z,76.82
2023-05-09T02:56:00.878Z,76.92
2023-05-09T02:58:27.363Z,76.77
2023-05-09T03:00:53.812Z,77.20
2023-05-09T03:03:22.276Z,76.92
2023-05-09T03:05:48.901Z,76.63
2023-05-09T03:08:15.983Z,75.75
2023-05-09T03:10:42.439Z,75.70
2023-05-09T03:13:08.971Z,75.52
2023-05-09T03:15:35.497Z,75.64
2023-05-09T03:18:01.997Z,75.73
2023-05-09T03:20:28.510Z,75.49
2023-05-09T03:22:55.051Z,75.25
2023-05-09T03:25:22.542Z,75.54
2023-05-09T03:27:49.070Z,75.64
2023-05-09T03:30:15.698Z,75.83
2023-05-09T03:32:42.208Z,76.05
2023-05-09T03:35:08.756Z,76.66
2023-05-09T03:37:35.235Z,76.94
2023-05-09T03:40:01.769Z,77.24
2023-05-09T03:42:28.260Z,77.10
2023-05-09T03:44:55.052Z,77.78
2023-05-09T03:47:21.549Z,77.37
2023-05-09T03:49:48.190Z,77.65
2023-05-09T03:52:14.649Z,77.82
2023-05-09T03:54:41.173Z,77.47
2023-05-09T03:57:07.701Z,77.55
2023-05-09T03:59:34.154Z,77.63
2023-05-09T04:02:00.684Z,77.60
2023-05-09T04:04:27.434Z,77.65
2023-05-09T04:06:53.912Z,77.49
2023-05-09T04:09:20.431Z,77.53
2023-05-09T04:11:46.904Z,77.46
2023-05-09T04:14:13.353Z,77.34
2023-05-09T04:16:39.847Z,77.49
2023-05-09T04:19:07.216Z,77.15
2023-05-09T04:21:33.766Z,77.34
2023-05-09T04:24:00.216Z,77.47
2023-05-09T04:26:26.835Z,77.89
2023-05-09T04:28:53.480Z,77.89
2023-05-09T04:31:20.118Z,78.08
2023-05-09T04:33:46.801Z,78.26
2023-05-09T04:36:13.284Z,77.90
2023-05-09T04:38:39.740Z,77.90
2023-05-09T04:41:06.502Z,78.04
2023-05-09T04:43:33.160Z,77.88
2023-05-09T04:45:59.658Z,78.12
2023-05-09T04:48:26.161Z,78.07
2023-05-09T04:50:52.635Z,78.02
2023-05-09T04:53:19.078Z,77.98
2023-05-09T04:55:45.744Z,77.51
2023-05-09T04:58:12.195Z,77.19
2023-05-09T05:00:38.660Z,76.86
2023-05-09T05:03:05.372Z,76.51
2023-05-09T05:05:33.653Z,76.19
2023-05-09T05:08:01.700Z,75.64
2023-05-09T05:10:28.225Z,75.50
2023-05-09T05:12:54.701Z,75.11
2023-05-09T05:15:21.288Z,74.92
2023-05-09T05:17:47.815Z,74.92
2023-05-09T05:20:14.374Z,75.08
2023-05-09T05:22:40.878Z,74.95
2023-05-09T05:25:08.194Z,75.11
2023-05-09T05:27:34.662Z,74.47
2023-05-09T05:30:01.116Z,74.20
2023-05-09T05:32:27.877Z,74.07
2023-05-09T05:34:54.329Z,73.67
2023-05-09T05:37:20.785Z,73.23
2023-05-09T05:39:47.380Z,73.37
2023-05-09T05:42:13.887Z,73.23
2023-05-09T05:44:40.338Z,72.96
2023-05-09T05:47:06.852Z,72.84
2023-05-09T05:49:33.336Z,72.17
2023-05-09T05:51:59.803Z,71.16
2023-05-09T05:54:26.266Z,70.36
2023-05-09T05:56:52.729Z,69.91
2023-05-09T05:59:19.182Z,69.91
2023-05-09T06:01:45.665Z,69.52
2023-05-09T06:04:12.158Z,68.79
2023-05-09T06:06:38.648Z,68.93
2023-05-09T06:09:05.118Z,68.74
2023-05-09T06:11:31.613Z,68.44
2023-05-09T06:13:58.065Z,68.13
2023-05-09T06:16:24.547Z,66.72
2023-05-09T06:18:52.665Z,66.72
2023-05-09T06:21:20.623Z,67.13
2023-05-09T06:24:05.046Z,66.81
2023-05-09T06:26:33.520Z,64.12
2023-05-09T06:28:59.970Z,64.45
2023-05-09T06:31:26.863Z,65.94
2023-05-09T06:33:53.427Z,65.05
2023-05-09T06:36:19.908Z,64.29
2023-05-09T06:38:46.413Z,64.83
2023-05-09T06:41:12.908Z,65.14
2023-05-09T06:43:39.733Z,63.63
2023-05-09T06:46:06.286Z,64.51
2023-05-09T06:48:32.742Z,63.72
2023-05-09T06:50:59.196Z,63.98
2023-05-09T06:53:25.681Z,64.24
2023-05-09T06:55:52.209Z,64.83
2023-05-09T06:58:18.736Z,65.62
2023-05-09T07:00:45.266Z,64.70
2023-05-09T07:03:11.858Z,64.12
2023-05-09T07:05:38.368Z,62.91
2023-05-09T07:08:04.820Z,63.63
2023-05-09T07:10:31.538Z,63.96
2023-05-09T07:12:58.100Z,64.14
2023-05-09T07:15:39.748Z,63.99
2023-05-09T07:18:07.546Z,62.65
2023-05-09T07:20:34.023Z,62.77
2023-05-09T07:23:00.657Z,62.95
2023-05-09T07:25:27.223Z,62.72
2023-05-09T07:27:53.722Z,61.97
2023-05-09T07:30:20.273Z,60.97
2023-05-09T07:32:46.916Z,61.45
2023-05-09T07:35:13.675Z,62.46
2023-05-09T07:37:40.700Z,61.52
2023-05-09T07:40:07.853Z,60.01
2023-05-09T07:42:34.522Z,59.75
2023-05-09T07:45:01.063Z,60.14
2023-05-09T07:47:27.626Z,58.35
2023-05-09T07:49:54.236Z,56.26
2023-05-09T07:52:20.721Z,56.87
2023-05-09T07:54:47.226Z,53.35
2023-05-09T07:57:13.728Z,53.73
2023-05-09T07:59:40.405Z,54.20
2023-05-09T08:02:06.904Z,53.18
2023-05-09T08:04:33.415Z,54.22
2023-05-09T08:07:00.003Z,54.50
2023-05-09T08:09:26.551Z,53.20
2023-05-09T08:11:53.021Z,54.50
2023-05-09T08:14:19.493Z,53.80
2023-05-09T08:16:45.965Z,53.74
2023-05-09T08:19:12.460Z,53.77
2023-05-09T08:21:38.922Z,53.10
2023-05-09T08:24:07.954Z,52.69
2023-05-09T08:26:35.180Z,52.45
2023-05-09T08:29:01.664Z,50.90
2023-05-09T08:31:28.188Z,51.95
2023-05-09T08:33:54.733Z,51.80
2023-05-09T08:36:21.212Z,50.29
2023-05-09T08:38:47.689Z,49.94
2023-05-09T08:41:14.181Z,50.04
2023-05-09T08:43:40.651Z,49.19
2023-05-09T08:46:08.631Z,49.52
2023-05-09T08:48:37.489Z,50.07
2023-05-09T08:51:07.072Z,50.38
2023-05-09T08:53:34.057Z,49.83
2023-05-09T08:56:03.333Z,49.01
2023-05-09T08:58:31.169Z,48.01
2023-05-09T09:00:57.641Z,47.93
2023-05-09T09:03:24.823Z,48.69
2023-05-09T09:05:51.386Z,48.29
2023-05-09T09:08:17.940Z,47.63
2023-05-09T09:10:47.345Z,46.51
2023-05-09T09:13:14.695Z,45.01
2023-05-09T09:15:42.294Z,44.43
2023-05-09T09:18:10.305Z,45.09
2023-05-09T09:21:07.036Z,44.54
2023-05-09T09:23:33.552Z,43.00
2023-05-09T09:26:01.229Z,43.63
2023-05-09T09:28:28.247Z,43.30
2023-05-09T09:30:54.769Z,43.64
2023-05-09T09:33:21.917Z,42.18
2023-05-09T09:35:49.887Z,43.06
2023-05-09T09:38:17.732Z,41.15
2023-05-09T09:40:57.061Z,40.93
2023-05-09T09:43:30.499Z,38.81
2023-05-09T09:45:57.687Z,39.37
2023-05-09T09:48:27.661Z,40.04
2023-05-09T09:50:56.662Z,39.75
2023-05-09T09:53:23.977Z,38.51
2023-05-09T09:55:51.932Z,37.27
2023-05-09T09:58:20.553Z,36.84
2023-05-09T10:00:47.026Z,36.17
2023-05-09T10:03:17.040Z,37.51
2023-05-09T10:05:43.656Z,37.84
2023-05-09T10:08:10.274Z,37.58
2023-05-09T10:10:37.219Z,38.25
2023-05-09T10:13:08.005Z,36.55
2023-05-09T10:15:49.267Z,36.93
2023-05-09T10:18:20.119Z,36.73
2023-05-09T10:20:47.015Z,39.13
2023-05-09T10:23:13.597Z,39.76
2023-05-09T10:25:55.927Z,38.83
2023-05-09T10:28:23.550Z,38.26
2023-05-09T10:31:18.591Z,39.70
2023-05-09T10:33:49.078Z,39.74
2023-05-09T10:36:17.137Z,40.16
2023-05-09T10:38:44.089Z,39.52
2023-05-09T10:41:11.115Z,39.62
2023-05-09T10:43:37.657Z,38.41
2023-05-09T10:46:05.118Z,38.39
2023-05-09T10:48:34.972Z,37.46
2023-05-09T10:51:01.522Z,37.09
2023-05-09T10:53:44.702Z,36.44
2023-05-09T10:56:24.005Z,35.03
2023-05-09T10:58:50.495Z,35.28
2023-05-09T11:01:28.562Z,34.45
2023-05-09T11:03:56.200Z,35.04
2023-05-09T11:06:49.401Z,33.98
2023-05-09T11:09:35.322Z,33.90
2023-05-09T11:12:04.731Z,32.30
2023-05-09T11:14:37.795Z,31.69
2023-05-09T11:17:14.853Z,32.05
2023-05-09T11:19:47.529Z,32.39
2023-05-09T11:22:14.831Z,32.87
2023-05-09T11:24:51.469Z,33.90
2023-05-09T11:27:21.475Z,35.03
2023-05-09T11:29:55.854Z,36.29
2023-05-09T11:32:23.371Z,37.75
2023-05-09T11:34:49.861Z,37.76
2023-05-09T11:37:17.163Z,37.80
2023-05-09T11:40:04.756Z,37.70
2023-05-09T11:42:31.404Z,38.20
2023-05-09T11:44:58.695Z,38.22
2023-05-09T11:47:29.522Z,38.54
2023-05-09T11:49:56.027Z,38.24
2023-05-09T11:52:22.491Z,38.16
2023-05-09T11:54:49.693Z,37.67
2023-05-09T11:57:19.029Z,37.30
2023-05-09T11:59:45.584Z,36.96
2023-05-09T12:02:12.295Z,36.19
2023-05-09T12:04:39.615Z,35.53
2023-05-09T12:07:06.276Z,35.76
2023-05-09T12:09:33.878Z,35.05
2023-05-09T12:12:01.178Z,36.05
2023-05-09T12:14:31.705Z,36.45
2023-05-09T12:16:58.358Z,36.23
2023-05-09T12:19:25.594Z,36.74
2023-05-09T12:21:59.024Z,37.45
2023-05-09T12:24:28.768Z,36.39
2023-05-09T12:26:59.204Z,36.67
2023-05-09T12:29:25.823Z,36.01
2023-05-09T12:31:53.066Z,35.13
2023-05-09T12:34:19.723Z,34.74
2023-05-09T12:36:53.448Z,35.90
2023-05-09T12:39:22.096Z,35.56
2023-05-09T12:42:00.526Z,36.32
2023-05-09T12:44:29.531Z,37.18
2023-05-09T12:47:00.255Z,38.59
2023-05-09T12:49:26.853Z,39.27
2023-05-09T12:51:53.892Z,40.52
2023-05-09T12:54:23.942Z,40.78
2023-05-09T12:56:56.573Z,41.45
2023-05-09T12:59:24.312Z,42.93
2023-05-09T13:01:57.440Z,43.72
2023-05-09T13:04:24.697Z,46.50
2023-05-09T13:06:55.846Z,48.10
2023-05-09T13:09:22.963Z,49.53
2023-05-09T13:11:50.706Z,49.58
2023-05-09T13:14:17.907Z,48.83
2023-05-09T13:16:44.538Z,49.63
2023-05-09T13:19:11.099Z,51.26
2023-05-09T13:21:37.634Z,50.82
2023-05-09T13:24:04.444Z,51.37
2023-05-09T13:26:30.922Z,51.98
2023-05-09T13:28:57.424Z,52.41
2023-05-09T13:31:24.062Z,51.21
2023-05-09T13:33:51.984Z,54.49
2023-05-09T13:36:18.881Z,53.09
2023-05-09T13:38:45.773Z,54.02
2023-05-09T13:41:13.436Z,53.41
2023-05-09T13:43:40.956Z,54.80
2023-05-09T13:46:07.429Z,53.12
2023-05-09T13:48:33.971Z,53.16
2023-05-09T13:51:01.358Z,54.07
2023-05-09T13:53:27.867Z,52.83
2023-05-09T13:55:54.452Z,53.67
2023-05-09T13:58:21.167Z,53.77
2023-05-09T14:00:47.700Z,55.65
2023-05-09T14:03:14.198Z,53.97
2023-05-09T14:05:40.732Z,54.05
2023-05-09T14:08:07.550Z,54.96
2023-05-09T14:10:34.026Z,55.66
2023-05-09T14:13:00.807Z,56.19
2023-05-09T14:15:27.363Z,56.16
2023-05-09T14:17:53.898Z,56.43
2023-05-09T14:20:20.458Z,58.26
2023-05-09T14:22:46.923Z,58.53
2023-05-09T14:25:13.419Z,59.18
2023-05-09T14:27:39.908Z,59.79
2023-05-09T14:30:06.999Z,59.99
2023-05-09T14:32:33.487Z,60.33
2023-05-09T14:35:00.019Z,62.05
2023-05-09T14:37:26.683Z,63.04
2023-05-09T14:39:53.246Z,60.69
2023-05-09T14:42:19.785Z,60.21
2023-05-09T14:44:47.260Z,61.11
2023-05-09T14:47:13.788Z,61.96
2023-05-09T14:49:41.281Z,60.79
2023-05-09T14:52:07.800Z,61.02
2023-05-09T14:54:34.778Z,62.57
2023-05-09T14:57:04.172Z,63.61
2023-05-09T14:59:30.815Z,59.85
2023-05-09T15:01:57.304Z,59.21
2023-05-09T15:04:28.152Z,59.17
2023-05-09T15:06:54.796Z,62.07
2023-05-09T15:09:21.495Z,62.10
2023-05-09T15:11:49.278Z,62.26
2023-05-09T15:14:16.551Z,60.94
2023-05-09T15:16:43.404Z,62.65
2023-05-09T15:19:09.994Z,64.25
2023-05-09T15:21:36.529Z,62.78
2023-05-09T15:24:03.588Z,61.82
2023-05-09T15:26:30.188Z,62.49
2023-05-09T15:28:56.664Z,62.41
2023-05-09T15:31:24.030Z,61.85
2023-05-09T15:33:50.560Z,62.56
2023-05-09T15:36:17.137Z,62.45
2023-05-09T15:38:46.172Z,62.89
2023-05-09T15:41:12.639Z,63.85
2023-05-09T15:43:39.274Z,63.52
2023-05-09T15:46:05.870Z,63.44
2023-05-09T15:48:32.380Z,63.86
2023-05-09T15:50:58.907Z,64.46
2023-05-09T15:53:27.468Z,64.20
2023-05-09T15:55:53.915Z,63.75
2023-05-09T15:58:20.407Z,64.94
2023-05-09T16:00:47.604Z,64.23
2023-05-09T16:03:14.154Z,64.44
2023-05-09T16:05:41.046Z,64.97
2023-05-09T16:08:07.703Z,65.62
2023-05-09T16:10:34.210Z,66.48
2023-05-09T16:13:00.914Z,67.31
2023-05-09T16:15:27.567Z,67.99
2023-05-09T16:17:54.031Z,67.03
2023-05-09T16:20:20.575Z,67.64
2023-05-09T16:22:47.053Z,67.44
2023-05-09T16:25:13.892Z,67.59
2023-05-09T16:27:40.470Z,68.32
2023-05-09T16:30:07.561Z,67.59
2023-05-09T16:32:34.056Z,67.47
2023-05-09T16:35:00.534Z,68.11
2023-05-09T16:37:29.088Z,68.91
2023-05-09T16:39:56.387Z,68.46
2023-05-09T16:42:22.855Z,69.01
2023-05-09T16:44:49.478Z,68.80
2023-05-09T16:47:15.960Z,70.09
2023-05-09T16:49:42.642Z,69.04
2023-05-09T16:52:09.404Z,70.00
2023-05-09T16:54:35.930Z,70.53
2023-05-09T16:57:03.194Z,69.88
2023-05-09T16:59:29.703Z,71.10
2023-05-09T17:01:57.615Z,71.65
2023-05-09T17:04:25.221Z,71.91
2023-05-09T17:06:53.157Z,71.84
2023-05-09T17:09:19.760Z,72.08
2023-05-09T17:11:46.448Z,71.57
2023-05-09T17:14:12.918Z,71.68
2023-05-09T17:16:39.527Z,71.38
2023-05-09T17:19:06.167Z,70.64
2023-05-09T17:21:32.761Z,70.82
2023-05-09T17:23:59.239Z,70.73
2023-05-09T17:26:25.972Z,69.61
2023-05-09T17:28:52.506Z,69.75
2023-05-09T17:31:19.131Z,72.01
2023-05-09T17:33:45.774Z,71.70
2023-05-09T17:36:12.292Z,73.07
2023-05-09T17:38:38.851Z,72.43
2023-05-09T17:41:05.780Z,73.88
2023-05-09T17:43:32.280Z,72.68
2023-05-09T17:45:59.104Z,73.06
2023-05-09T17:48:25.765Z,73.53
2023-05-09T17:50:52.661Z,73.18
2023-05-09T17:53:19.177Z,73.43
2023-05-09T17:55:45.703Z,74.16
2023-05-09T17:58:12.330Z,73.92
2023-05-09T18:00:38.872Z,73.42
2023-05-09T18:03:05.468Z,74.06
2023-05-09T18:05:32.004Z,73.65
2023-05-09T18:08:00.784Z,73.55
2023-05-09T18:10:28.345Z,72.93
2023-05-09T18:12:54.938Z,72.76
2023-05-09T18:15:21.442Z,72.72
2023-05-09T18:17:49.190Z,72.89
2023-05-09T18:20:15.881Z,73.19
2023-05-09T18:22:42.527Z,73.11
2023-05-09T18:25:09.359Z,72.46
2023-05-09T18:27:35.843Z,72.25
2023-05-09T18:30:02.478Z,73.54
2023-05-09T18:32:29.840Z,72.42
2023-05-09T18:34:56.355Z,72.74
2023-05-09T18:37:22.894Z,74.45
2023-05-09T18:39:49.654Z,73.84
2023-05-09T18:42:16.507Z,76.27
2023-05-09T18:44:43.129Z,78.69
2023-05-09T18:47:09.739Z,76.94
2023-05-09T18:49:36.235Z,77.80
2023-05-09T18:52:03.297Z,78.59
2023-05-09T18:54:29.859Z,79.12
2023-05-09T18:56:56.340Z,79.49
2023-05-09T18:59:23.518Z,78.58
2023-05-09T19:01:50.264Z,78.66
2023-05-09T19:04:17.371Z,80.13
2023-05-09T19:06:44.122Z,81.05
2023-05-09T19:09:11.476Z,80.34
2023-05-09T19:11:37.995Z,81.95
2023-05-09T19:14:05.038Z,80.53
2023-05-09T19:16:31.769Z,82.27
2023-05-09T19:18:58.477Z,79.43
2023-05-09T19:21:25.475Z,78.94
2023-05-09T19:23:52.008Z,80.40
2023-05-09T19:26:18.765Z,80.43
2023-05-09T19:28:46.332Z,79.76
2023-05-09T19:31:13.832Z,79.23
2023-05-09T19:33:41.061Z,79.60
2023-05-09T19:36:07.637Z,77.92
2023-05-09T19:38:35.032Z,79.19
2023-05-09T19:41:01.499Z,76.12
2023-05-09T19:43:27.961Z,79.42
2023-05-09T19:45:54.484Z,76.45
2023-05-09T19:48:20.987Z,77.91
2023-05-09T19:50:47.507Z,78.19
2023-05-09T19:53:13.974Z,79.93
2023-05-09T19:55:41.044Z,80.46
2023-05-09T19:58:07.745Z,80.06
2023-05-09T20:00:35.942Z,80.74
2023-05-09T20:03:03.948Z,79.28
2023-05-09T20:05:30.707Z,79.42
2023-05-09T20:07:57.158Z,79.88
2023-05-09T20:10:24.003Z,78.88
2023-05-09T20:12:50.559Z,78.96
2023-05-09T20:15:17.185Z,78.77
2023-05-09T20:17:44.522Z,77.40
2023-05-09T20:20:11.624Z,78.95
2023-05-09T20:22:38.085Z,79.66
2023-05-09T20:25:05.244Z,76.60
2023-05-09T20:27:31.768Z,75.96
2023-05-09T20:29:58.235Z,78.95
2023-05-09T20:32:25.310Z,77.48
2023-05-09T20:34:51.782Z,77.42
2023-05-09T20:37:18.236Z,75.59
2023-05-09T20:39:45.078Z,76.22
2023-05-09T20:42:11.536Z,77.07
2023-05-09T20:44:39.291Z,75.24
2023-05-09T20:47:05.868Z,75.27
2023-05-09T20:49:32.332Z,74.65
2023-05-09T20:51:58.870Z,77.33
2023-05-09T20:54:25.814Z,76.81
2023-05-09T20:56:52.374Z,77.23
2023-05-09T20:59:18.882Z,76.95
2023-05-09T21:01:45.412Z,76.53
2023-05-09T21:04:11.937Z,76.01
2023-05-09T21:06:38.508Z,77.22
2023-05-09T21:09:09.150Z,75.94
2023-05-09T21:11:36.991Z,75.25
2023-05-09T21:14:03.480Z,76.31
2023-05-09T21:16:29.989Z,74.87
2023-05-09T21:18:57.916Z,74.70
2023-05-09T21:21:24.369Z,75.49
2023-05-09T21:23:51.354Z,77.30
2023-05-09T21:26:17.884Z,81.10
2023-05-09T21:28:44.323Z,80.65
2023-05-09T21:31:11.582Z,80.00
2023-05-09T21:33:38.219Z,82.01
2023-05-09T21:36:04.762Z,83.27
2023-05-09T21:38:31.252Z,85.01
2023-05-09T21:40:58.310Z,85.57
2023-05-09T21:43:24.811Z,83.67
2023-05-09T21:45:51.298Z,83.51
2023-05-09T21:48:17.830Z,82.83
2023-05-09T21:50:45.995Z,82.38
2023-05-09T21:53:13.067Z,82.16
2023-05-09T21:55:39.871Z,81.11
2023-05-09T21:58:06.375Z,83.38
2023-05-09T22:00:33.018Z,82.13
2023-05-09T22:02:59.536Z,82.03
2023-05-09T22:05:26.095Z,79.87
2023-05-09T22:07:52.587Z,80.77
2023-05-09T22:10:19.108Z,84.96
2023-05-09T22:12:45.855Z,81.89
2023-05-09T22:15:12.759Z,92.96
2023-05-09T22:17:39.255Z,90.73
2023-05-09T22:20:06.495Z,90.93
2023-05-09T22:22:33.321Z,87.52
2023-05-09T22:24:59.831Z,88.81
2023-05-09T22:27:26.300Z,86.77
2023-05-09T22:29:52.945Z,86.15
2023-05-09T22:32:19.531Z,85.36
2023-05-09T22:34:49.151Z,86.14
2023-05-09T22:37:15.897Z,83.83
2023-05-09T22:39:42.418Z,83.15
2023-05-09T22:42:11.124Z,81.84
2023-05-09T22:44:38.957Z,82.60
2023-05-09T22:47:07.598Z,84.39
2023-05-09T22:49:34.063Z,84.75
2023-05-09T22:52:00.521Z,83.58
2023-05-09T22:54:27.327Z,83.15
2023-05-09T22:56:53.780Z,83.11
2023-05-09T22:59:20.394Z,82.83
2023-05-09T23:01:47.065Z,82.95
2023-05-09T23:04:13.720Z,82.42
2023-05-09T23:06:40.215Z,82.38
2023-05-09T23:09:06.941Z,81.57
2023-05-09T23:11:33.510Z,83.10
2023-05-09T23:14:00.056Z,82.28
2023-05-09T23:16:26.521Z,80.70
2023-05-09T23:18:53.015Z,81.85
2023-05-09T23:21:19.510Z,82.08
2023-05-09T23:23:45.989Z,81.21
2023-05-09T23:26:12.488Z,80.31
2023-05-09T23:28:38.951Z,80.44
2023-05-09T23:31:05.445Z,80.90
2023-05-09T23:33:31.974Z,80.14
2023-05-09T23:35:58.448Z,80.03
2023-05-09T23:38:24.894Z,80.62
2023-05-09T23:40:52.996Z,79.07
2023-05-09T23:43:19.498Z,79.40
2023-05-09T23:45:46.008Z,79.42
2023-05-09T23:48:12.594Z,79.48
2023-05-09T23:50:39.140Z,78.73
2023-05-09T23:53:06.502Z,79.56
2023-05-09T23:55:33.019Z,76.73
2023-05-09T23:58:00.557Z,77.14
